Date,TemperatureHighF,TemperatureAvgF,TemperatureLowF,DewpointHighF,DewpointAvgF,DewpointLowF,HumidityHigh,HumidityAvg,HumidityLow,PressureMaxIn,PressureMinIn,WindSpeedMaxMPH,WindSpeedAvgMPH,GustSpeedMaxMPH,PrecipitationSumIn
2013-7-1,102.3,79.7,57.6,67.7,60.9,54.6,91,58,27,0.00,0.00,6,2,12,0.00
2013-7-2,97.2,76.3,61.6,67.7,60.0,55.4,80,59,37,0.00,0.00,8,4,17,0.00
2013-7-3,91.5,73.2,58.9,66.5,59.3,55.5,89,65,42,0.00,0.00,7,3,14,0.00
2013-7-4,107.1,86.1,66.9,72.8,54.9,42.8,71,39,16,0.00,0.00,11,5,22,0.00
2013-7-5,87.3,72.0,59.9,59.2,51.8,43.5,71,50,34,0.00,0.00,7,4,17,0.00
2013-7-6,82.7,65.9,52.7,59.5,53.6,48.8,87,66,45,0.00,0.00,6,3,13,0.00
2013-7-7,83.8,64.2,52.8,58.0,52.9,50.1,92,70,41,0.00,0.00,7,3,13,0.00
2013-7-8,86.1,64.8,52.8,57.5,52.8,50.4,92,70,34,0.00,0.00,6,3,13,0.00
2013-7-9,94.1,70.9,51.7,56.5,51.4,45.1,96,59,19,0.00,0.00,6,2,13,0.00
2013-7-10,85.7,66.3,50.9,54.7,51.1,48.2,94,63,28,0.00,0.00,7,4,15,0.00
2013-7-11,80.3,61.9,51.6,56.2,51.0,48.4,91,71,42,0.00,0.00,6,3,14,0.00
2013-7-12,82.8,63.9,53.4,58.1,52.7,50.1,89,70,41,0.00,0.00,6,3,13,0.00
2013-7-13,88.0,66.2,45.6,56.4,50.1,42.1,91,61,23,0.00,0.00,7,3,14,0.00
2013-7-14,84.8,63.6,48.1,56.8,51.6,45.4,95,69,37,0.00,0.00,7,3,13,0.00
2013-7-15,74.0,59.0,51.0,54.4,50.8,48.5,94,76,50,0.00,0.00,7,4,15,0.00
2013-7-16,72.7,59.7,52.7,56.0,52.0,48.0,93,77,53,0.00,0.00,6,3,14,0.00
2013-7-17,84.6,64.9,47.5,59.0,52.8,45.0,92,68,39,0.00,0.00,6,2,12,0.00
2013-7-18,88.9,66.7,51.1,58.4,53.7,48.5,97,68,34,0.00,0.00,6,3,13,0.00
2013-7-19,92.3,67.0,48.1,61.9,53.1,45.3,97,66,33,0.00,0.00,6,3,13,0.00
2013-7-20,92.7,67.6,48.3,61.1,53.1,45.0,91,64,34,0.00,0.00,7,3,14,0.00
2013-7-21,86.9,65.7,49.3,57.4,51.8,46.1,92,65,35,0.00,0.00,6,3,13,0.00
2013-7-22,87.3,66.4,47.9,57.1,51.2,44.1,89,63,28,0.00,0.00,7,3,15,0.00
2013-7-23,81.3,70.4,58.9,57.3,54.5,51.4,80,59,37,0.00,0.00,6,3,12,0.00
2013-7-24,90.3,70.9,54.4,60.9,55.4,51.2,90,62,34,0.00,0.00,6,3,14,0.00
2013-7-25,85.8,67.5,53.8,59.1,54.2,50.8,91,66,40,0.00,0.00,6,4,13,0.00
2013-7-26,85.3,65.2,53.1,59.5,53.4,50.3,92,69,41,0.00,0.00,6,4,12,0.00
2013-7-27,81.7,63.4,53.7,58.4,53.2,50.1,91,72,45,0.00,0.00,6,3,12,0.00
2013-7-28,78.8,61.1,52.7,56.7,51.9,49.5,93,74,46,0.00,0.00,6,3,14,0.00
2013-7-29,73.5,59.0,52.4,55.7,51.8,49.7,93,78,53,0.00,0.00,6,3,15,0.00
2013-7-30,78.3,62.5,52.4,58.3,53.1,49.7,91,74,50,0.00,0.00,6,3,12,0.00
2013-7-31,82.2,66.4,52.5,59.0,51.6,41.1,93,63,24,0.00,0.00,6,3,13,0.00